sensor_id;sensor_type;location;lat;lon;timestamp;P1;durP1;ratioP1;P2;durP2;ratioP2
76867;SDS011;66168;45.478;11.060;2023-03-01T00:01:06;5.50;;;3.30;;
76867;SDS011;66168;45.478;11.060;2023-03-01T00:03:35;5.20;;;3.50;;
76867;SDS011;66168;45.478;11.060;2023-03-01T00:06:03;5.50;;;3.30;;
76867;SDS011;66168;45.478;11.060;2023-03-01T00:08:31;5.10;;;3.60;;
76867;SDS011;66168;45.478;11.060;2023-03-01T00:10:59;5.20;;;3.20;;
76867;SDS011;66168;45.478;11.060;2023-03-01T00:13:43;4.40;;;3.20;;
76867;SDS011;66168;45.478;11.060;2023-03-01T00:16:12;5.70;;;3.10;;
76867;SDS011;66168;45.478;11.060;2023-03-01T00:18:41;5.10;;;3.00;;
76867;SDS011;66168;45.478;11.060;2023-03-01T00:21:08;4.70;;;3.70;;
76867;SDS011;66168;45.478;11.060;2023-03-01T00:23:36;6.30;;;3.40;;
76867;SDS011;66168;45.478;11.060;2023-03-01T00:26:07;6.20;;;4.00;;
76867;SDS011;66168;45.478;11.060;2023-03-01T00:28:36;5.70;;;4.20;;
76867;SDS011;66168;45.478;11.060;2023-03-01T00:31:04;5.10;;;3.60;;
76867;SDS011;66168;45.478;11.060;2023-03-01T00:33:32;5.30;;;3.50;;
76867;SDS011;66168;45.478;11.060;2023-03-01T00:35:59;6.30;;;3.70;;
76867;SDS011;66168;45.478;11.060;2023-03-01T00:38:26;5.30;;;3.70;;
76867;SDS011;66168;45.478;11.060;2023-03-01T00:40:53;6.00;;;3.40;;
76867;SDS011;66168;45.478;11.060;2023-03-01T00:43:20;5.50;;;4.00;;
76867;SDS011;66168;45.478;11.060;2023-03-01T00:45:47;6.30;;;3.90;;
76867;SDS011;66168;45.478;11.060;2023-03-01T00:48:14;6.40;;;3.80;;
76867;SDS011;66168;45.478;11.060;2023-03-01T00:50:41;7.10;;;4.00;;
76867;SDS011;66168;45.478;11.060;2023-03-01T00:53:07;6.80;;;3.90;;
76867;SDS011;66168;45.478;11.060;2023-03-01T00:55:34;6.60;;;4.10;;
76867;SDS011;66168;45.478;11.060;2023-03-01T00:58:02;5.30;;;3.30;;
76867;SDS011;66168;45.478;11.060;2023-03-01T01:00:29;6.50;;;4.50;;
76867;SDS011;66168;45.478;11.060;2023-03-01T01:02:55;5.90;;;4.00;;
76867;SDS011;66168;45.478;11.060;2023-03-01T01:05:22;6.70;;;4.00;;
76867;SDS011;66168;45.478;11.060;2023-03-01T01:07:49;6.50;;;4.30;;
76867;SDS011;66168;45.478;11.060;2023-03-01T01:10:15;5.90;;;3.80;;
76867;SDS011;66168;45.478;11.060;2023-03-01T01:12:46;7.70;;;4.30;;
76867;SDS011;66168;45.478;11.060;2023-03-01T01:15:13;5.70;;;4.00;;
76867;SDS011;66168;45.478;11.060;2023-03-01T01:17:43;7.10;;;4.10;;
76867;SDS011;66168;45.478;11.060;2023-03-01T01:20:10;7.00;;;4.50;;
76867;SDS011;66168;45.478;11.060;2023-03-01T01:22:38;6.20;;;4.20;;
76867;SDS011;66168;45.478;11.060;2023-03-01T01:25:04;6.60;;;4.00;;
76867;SDS011;66168;45.478;11.060;2023-03-01T01:27:31;7.80;;;4.50;;
76867;SDS011;66168;45.478;11.060;2023-03-01T01:29:58;7.10;;;4.50;;
76867;SDS011;66168;45.478;11.060;2023-03-01T01:32:24;7.10;;;4.80;;
76867;SDS011;66168;45.478;11.060;2023-03-01T01:34:52;8.50;;;4.70;;
76867;SDS011;66168;45.478;11.060;2023-03-01T01:37:19;7.00;;;4.50;;
76867;SDS011;66168;45.478;11.060;2023-03-01T01:39:46;6.60;;;4.30;;
76867;SDS011;66168;45.478;11.060;2023-03-01T01:42:15;6.30;;;4.50;;
76867;SDS011;66168;45.478;11.060;2023-03-01T01:44:44;6.80;;;4.70;;
76867;SDS011;66168;45.478;11.060;2023-03-01T01:47:13;7.70;;;4.50;;
76867;SDS011;66168;45.478;11.060;2023-03-01T01:49:47;8.50;;;4.90;;
76867;SDS011;66168;45.478;11.060;2023-03-01T01:54:54;7.20;;;5.00;;
76867;SDS011;66168;45.478;11.060;2023-03-01T01:57:41;9.40;;;5.20;;
76867;SDS011;66168;45.478;11.060;2023-03-01T02:00:13;8.90;;;4.90;;
76867;SDS011;66168;45.478;11.060;2023-03-01T02:02:44;7.20;;;4.50;;
76867;SDS011;66168;45.478;11.060;2023-03-01T02:05:20;7.20;;;4.90;;
76867;SDS011;66168;45.478;11.060;2023-03-01T02:07:53;7.90;;;4.70;;
76867;SDS011;66168;45.478;11.060;2023-03-01T02:10:21;6.70;;;4.60;;
76867;SDS011;66168;45.478;11.060;2023-03-01T02:12:49;7.90;;;5.10;;
76867;SDS011;66168;45.478;11.060;2023-03-01T02:15:16;7.00;;;4.50;;
76867;SDS011;66168;45.478;11.060;2023-03-01T02:17:43;7.90;;;5.00;;
76867;SDS011;66168;45.478;11.060;2023-03-01T02:22:50;6.90;;;4.60;;
76867;SDS011;66168;45.478;11.060;2023-03-01T02:30:42;6.30;;;4.10;;
76867;SDS011;66168;45.478;11.060;2023-03-01T02:33:30;10.50;;;5.50;;
76867;SDS011;66168;45.478;11.060;2023-03-01T02:36:00;8.10;;;4.40;;
76867;SDS011;66168;45.478;11.060;2023-03-01T02:38:30;8.20;;;4.70;;
76867;SDS011;66168;45.478;11.060;2023-03-01T02:40:58;7.90;;;4.80;;
76867;SDS011;66168;45.478;11.060;2023-03-01T02:43:29;6.40;;;4.80;;
76867;SDS011;66168;45.478;11.060;2023-03-01T02:46:04;7.50;;;4.30;;
76867;SDS011;66168;45.478;11.060;2023-03-01T02:48:44;8.40;;;5.00;;
76867;SDS011;66168;45.478;11.060;2023-03-01T02:56:26;8.20;;;5.00;;
76867;SDS011;66168;45.478;11.060;2023-03-01T02:58:53;8.40;;;4.90;;
76867;SDS011;66168;45.478;11.060;2023-03-01T03:01:21;8.30;;;5.20;;
76867;SDS011;66168;45.478;11.060;2023-03-01T03:03:48;10.30;;;5.60;;
76867;SDS011;66168;45.478;11.060;2023-03-01T03:06:16;8.90;;;4.70;;
76867;SDS011;66168;45.478;11.060;2023-03-01T03:08:42;8.60;;;5.20;;
76867;SDS011;66168;45.478;11.060;2023-03-01T03:11:10;9.00;;;5.10;;
76867;SDS011;66168;45.478;11.060;2023-03-01T03:13:37;9.30;;;5.00;;
76867;SDS011;66168;45.478;11.060;2023-03-01T03:16:04;10.50;;;5.90;;
76867;SDS011;66168;45.478;11.060;2023-03-01T03:18:32;9.60;;;5.40;;
76867;SDS011;66168;45.478;11.060;2023-03-01T03:20:58;9.50;;;5.60;;
76867;SDS011;66168;45.478;11.060;2023-03-01T03:23:25;8.70;;;5.20;;
76867;SDS011;66168;45.478;11.060;2023-03-01T03:25:52;8.80;;;5.40;;
76867;SDS011;66168;45.478;11.060;2023-03-01T03:28:18;8.50;;;5.90;;
76867;SDS011;66168;45.478;11.060;2023-03-01T03:30:45;9.20;;;5.80;;
76867;SDS011;66168;45.478;11.060;2023-03-01T03:33:13;9.00;;;5.30;;
76867;SDS011;66168;45.478;11.060;2023-03-01T03:35:41;8.40;;;5.20;;
76867;SDS011;66168;45.478;11.060;2023-03-01T03:38:13;9.80;;;5.00;;
76867;SDS011;66168;45.478;11.060;2023-03-01T03:40:49;9.20;;;5.20;;
76867;SDS011;66168;45.478;11.060;2023-03-01T03:45:45;8.50;;;5.10;;
76867;SDS011;66168;45.478;11.060;2023-03-01T03:48:13;8.90;;;4.70;;
76867;SDS011;66168;45.478;11.060;2023-03-01T03:50:40;9.00;;;5.50;;
76867;SDS011;66168;45.478;11.060;2023-03-01T03:53:10;8.70;;;5.50;;
76867;SDS011;66168;45.478;11.060;2023-03-01T03:55:38;9.20;;;5.10;;
76867;SDS011;66168;45.478;11.060;2023-03-01T03:58:06;7.50;;;5.20;;
76867;SDS011;66168;45.478;11.060;2023-03-01T04:00:37;6.10;;;4.70;;
76867;SDS011;66168;45.478;11.060;2023-03-01T04:03:06;7.90;;;5.10;;
76867;SDS011;66168;45.478;11.060;2023-03-01T04:05:33;8.20;;;4.50;;
76867;SDS011;66168;45.478;11.060;2023-03-01T04:08:01;9.10;;;5.30;;
76867;SDS011;66168;45.478;11.060;2023-03-01T04:10:30;9.40;;;4.90;;
76867;SDS011;66168;45.478;11.060;2023-03-01T04:12:58;8.40;;;5.10;;
76867;SDS011;66168;45.478;11.060;2023-03-01T04:15:25;9.60;;;5.50;;
76867;SDS011;66168;45.478;11.060;2023-03-01T04:17:53;8.10;;;4.70;;
76867;SDS011;66168;45.478;11.060;2023-03-01T04:20:23;8.80;;;5.40;;
76867;SDS011;66168;45.478;11.060;2023-03-01T04:22:52;9.90;;;5.60;;
76867;SDS011;66168;45.478;11.060;2023-03-01T04:25:23;10.50;;;5.70;;
76867;SDS011;66168;45.478;11.060;2023-03-01T04:27:51;9.00;;;5.50;;
76867;SDS011;66168;45.478;11.060;2023-03-01T04:30:18;10.20;;;5.50;;
76867;SDS011;66168;45.478;11.060;2023-03-01T04:32:44;9.30;;;5.10;;
76867;SDS011;66168;45.478;11.060;2023-03-01T04:35:11;9.80;;;5.30;;
76867;SDS011;66168;45.478;11.060;2023-03-01T04:37:38;8.30;;;5.10;;
76867;SDS011;66168;45.478;11.060;2023-03-01T04:40:05;7.10;;;4.60;;
76867;SDS011;66168;45.478;11.060;2023-03-01T04:42:42;6.70;;;5.20;;
76867;SDS011;66168;45.478;11.060;2023-03-01T04:45:09;7.50;;;4.90;;
76867;SDS011;66168;45.478;11.060;2023-03-01T04:47:40;7.70;;;4.90;;
76867;SDS011;66168;45.478;11.060;2023-03-01T04:50:09;8.80;;;5.00;;
76867;SDS011;66168;45.478;11.060;2023-03-01T04:52:38;9.30;;;5.80;;
76867;SDS011;66168;45.478;11.060;2023-03-01T04:55:05;9.30;;;4.90;;
76867;SDS011;66168;45.478;11.060;2023-03-01T04:57:33;8.30;;;4.90;;
76867;SDS011;66168;45.478;11.060;2023-03-01T05:00:00;5.70;;;4.30;;
76867;SDS011;66168;45.478;11.060;2023-03-01T05:02:27;8.40;;;5.50;;
76867;SDS011;66168;45.478;11.060;2023-03-01T05:04:53;8.90;;;5.50;;
76867;SDS011;66168;45.478;11.060;2023-03-01T05:07:23;9.20;;;5.30;;
76867;SDS011;66168;45.478;11.060;2023-03-01T05:09:51;8.60;;;5.60;;
76867;SDS011;66168;45.478;11.060;2023-03-01T05:12:20;8.80;;;5.40;;
76867;SDS011;66168;45.478;11.060;2023-03-01T05:14:47;9.80;;;5.90;;
76867;SDS011;66168;45.478;11.060;2023-03-01T05:17:13;9.60;;;5.30;;
76867;SDS011;66168;45.478;11.060;2023-03-01T05:19:40;9.10;;;5.90;;
76867;SDS011;66168;45.478;11.060;2023-03-01T05:22:08;8.30;;;5.50;;
76867;SDS011;66168;45.478;11.060;2023-03-01T05:24:36;9.20;;;5.90;;
76867;SDS011;66168;45.478;11.060;2023-03-01T05:27:03;11.30;;;6.00;;
76867;SDS011;66168;45.478;11.060;2023-03-01T05:29:30;9.00;;;5.90;;
76867;SDS011;66168;45.478;11.060;2023-03-01T05:32:01;9.70;;;6.00;;
76867;SDS011;66168;45.478;11.060;2023-03-01T05:34:32;10.40;;;6.50;;
76867;SDS011;66168;45.478;11.060;2023-03-01T05:37:02;13.00;;;6.40;;
76867;SDS011;66168;45.478;11.060;2023-03-01T05:39:29;11.20;;;5.70;;
76867;SDS011;66168;45.478;11.060;2023-03-01T05:41:58;11.20;;;6.60;;
76867;SDS011;66168;45.478;11.060;2023-03-01T05:44:27;12.10;;;6.40;;
76867;SDS011;66168;45.478;11.060;2023-03-01T05:46:54;10.70;;;6.00;;
76867;SDS011;66168;45.478;11.060;2023-03-01T05:49:23;10.10;;;6.10;;
76867;SDS011;66168;45.478;11.060;2023-03-01T05:51:51;13.50;;;6.40;;
76867;SDS011;66168;45.478;11.060;2023-03-01T05:54:19;8.90;;;5.50;;
76867;SDS011;66168;45.478;11.060;2023-03-01T05:56:47;9.50;;;5.60;;
76867;SDS011;66168;45.478;11.060;2023-03-01T05:59:13;13.20;;;6.70;;
76867;SDS011;66168;45.478;11.060;2023-03-01T06:01:42;8.30;;;5.50;;
76867;SDS011;66168;45.478;11.060;2023-03-01T06:04:09;9.20;;;6.00;;
76867;SDS011;66168;45.478;11.060;2023-03-01T06:06:36;11.40;;;6.20;;
76867;SDS011;66168;45.478;11.060;2023-03-01T06:09:04;10.50;;;6.10;;
76867;SDS011;66168;45.478;11.060;2023-03-01T06:11:34;8.80;;;5.20;;
76867;SDS011;66168;45.478;11.060;2023-03-01T06:14:02;9.90;;;6.10;;
76867;SDS011;66168;45.478;11.060;2023-03-01T06:16:29;11.40;;;6.00;;
76867;SDS011;66168;45.478;11.060;2023-03-01T06:18:56;10.00;;;6.00;;
76867;SDS011;66168;45.478;11.060;2023-03-01T06:24:08;9.30;;;6.50;;
76867;SDS011;66168;45.478;11.060;2023-03-01T06:26:35;14.50;;;6.60;;
76867;SDS011;66168;45.478;11.060;2023-03-01T06:29:02;9.70;;;6.40;;
76867;SDS011;66168;45.478;11.060;2023-03-01T06:31:28;9.70;;;5.50;;
76867;SDS011;66168;45.478;11.060;2023-03-01T06:33:55;10.10;;;6.30;;
76867;SDS011;66168;45.478;11.060;2023-03-01T06:36:22;13.50;;;6.90;;
76867;SDS011;66168;45.478;11.060;2023-03-01T06:38:49;11.50;;;6.40;;
76867;SDS011;66168;45.478;11.060;2023-03-01T06:41:15;10.60;;;6.70;;
76867;SDS011;66168;45.478;11.060;2023-03-01T06:43:42;11.10;;;5.60;;
76867;SDS011;66168;45.478;11.060;2023-03-01T06:46:09;9.40;;;6.10;;
76867;SDS011;66168;45.478;11.060;2023-03-01T06:48:35;15.50;;;6.50;;
76867;SDS011;66168;45.478;11.060;2023-03-01T06:51:02;11.60;;;6.80;;
76867;SDS011;66168;45.478;11.060;2023-03-01T06:53:30;11.10;;;5.90;;
76867;SDS011;66168;45.478;11.060;2023-03-01T06:55:57;10.30;;;5.50;;
76867;SDS011;66168;45.478;11.060;2023-03-01T06:58:26;13.60;;;6.50;;
76867;SDS011;66168;45.478;11.060;2023-03-01T07:00:53;11.50;;;7.20;;
76867;SDS011;66168;45.478;11.060;2023-03-01T07:03:19;11.90;;;6.40;;
76867;SDS011;66168;45.478;11.060;2023-03-01T07:05:48;8.20;;;5.40;;
76867;SDS011;66168;45.478;11.060;2023-03-01T07:08:16;10.10;;;5.70;;
76867;SDS011;66168;45.478;11.060;2023-03-01T07:10:43;14.10;;;10.50;;
76867;SDS011;66168;45.478;11.060;2023-03-01T07:13:09;12.30;;;8.10;;
76867;SDS011;66168;45.478;11.060;2023-03-01T07:15:36;12.00;;;6.80;;
76867;SDS011;66168;45.478;11.060;2023-03-01T07:18:03;11.90;;;6.70;;
76867;SDS011;66168;45.478;11.060;2023-03-01T07:20:30;11.40;;;6.80;;
76867;SDS011;66168;45.478;11.060;2023-03-01T07:22:56;11.70;;;6.20;;
76867;SDS011;66168;45.478;11.060;2023-03-01T07:25:24;9.90;;;6.20;;
76867;SDS011;66168;45.478;11.060;2023-03-01T07:27:52;16.40;;;8.30;;
76867;SDS011;66168;45.478;11.060;2023-03-01T07:30:19;11.30;;;7.10;;
76867;SDS011;66168;45.478;11.060;2023-03-01T07:32:47;14.60;;;7.00;;
76867;SDS011;66168;45.478;11.060;2023-03-01T07:35:14;12.20;;;7.80;;
76867;SDS011;66168;45.478;11.060;2023-03-01T07:37:41;15.60;;;7.90;;
76867;SDS011;66168;45.478;11.060;2023-03-01T07:40:09;15.60;;;8.70;;
76867;SDS011;66168;45.478;11.060;2023-03-01T07:42:37;10.40;;;7.00;;
76867;SDS011;66168;45.478;11.060;2023-03-01T07:45:04;14.60;;;9.90;;
76867;SDS011;66168;45.478;11.060;2023-03-01T07:47:32;15.90;;;10.60;;
76867;SDS011;66168;45.478;11.060;2023-03-01T07:49:59;11.20;;;8.20;;
76867;SDS011;66168;45.478;11.060;2023-03-01T07:52:27;13.80;;;8.80;;
76867;SDS011;66168;45.478;11.060;2023-03-01T07:54:54;11.70;;;7.40;;
76867;SDS011;66168;45.478;11.060;2023-03-01T07:57:21;9.90;;;6.20;;
76867;SDS011;66168;45.478;11.060;2023-03-01T07:59:47;12.80;;;6.90;;
76867;SDS011;66168;45.478;11.060;2023-03-01T08:02:14;13.00;;;6.30;;
76867;SDS011;66168;45.478;11.060;2023-03-01T08:04:41;12.40;;;6.50;;
76867;SDS011;66168;45.478;11.060;2023-03-01T08:07:08;10.90;;;7.00;;
76867;SDS011;66168;45.478;11.060;2023-03-01T08:09:35;10.60;;;7.10;;
76867;SDS011;66168;45.478;11.060;2023-03-01T08:12:03;10.70;;;6.40;;
76867;SDS011;66168;45.478;11.060;2023-03-01T08:14:31;11.80;;;7.60;;
76867;SDS011;66168;45.478;11.060;2023-03-01T08:16:58;11.10;;;6.10;;
76867;SDS011;66168;45.478;11.060;2023-03-01T08:19:25;12.00;;;7.50;;
76867;SDS011;66168;45.478;11.060;2023-03-01T08:21:54;12.30;;;7.00;;
76867;SDS011;66168;45.478;11.060;2023-03-01T08:24:21;9.70;;;6.00;;
76867;SDS011;66168;45.478;11.060;2023-03-01T08:26:48;9.00;;;6.20;;
76867;SDS011;66168;45.478;11.060;2023-03-01T08:29:15;11.00;;;7.60;;
76867;SDS011;66168;45.478;11.060;2023-03-01T08:31:41;10.20;;;6.30;;
76867;SDS011;66168;45.478;11.060;2023-03-01T08:34:10;13.50;;;8.20;;
76867;SDS011;66168;45.478;11.060;2023-03-01T08:36:40;11.30;;;7.20;;
76867;SDS011;66168;45.478;11.060;2023-03-01T08:39:09;13.40;;;7.70;;
76867;SDS011;66168;45.478;11.060;2023-03-01T08:41:38;13.10;;;8.20;;
76867;SDS011;66168;45.478;11.060;2023-03-01T08:44:06;12.40;;;7.70;;
76867;SDS011;66168;45.478;11.060;2023-03-01T08:46:37;12.10;;;7.90;;
76867;SDS011;66168;45.478;11.060;2023-03-01T08:49:09;12.90;;;6.90;;
76867;SDS011;66168;45.478;11.060;2023-03-01T08:51:38;10.70;;;6.60;;
76867;SDS011;66168;45.478;11.060;2023-03-01T08:54:07;13.90;;;6.90;;
76867;SDS011;66168;45.478;11.060;2023-03-01T08:56:37;13.60;;;7.40;;
76867;SDS011;66168;45.478;11.060;2023-03-01T08:59:04;15.10;;;8.80;;
76867;SDS011;66168;45.478;11.060;2023-03-01T09:01:31;14.00;;;7.60;;
76867;SDS011;66168;45.478;11.060;2023-03-01T09:03:57;10.00;;;7.10;;
76867;SDS011;66168;45.478;11.060;2023-03-01T09:06:25;13.80;;;8.10;;
76867;SDS011;66168;45.478;11.060;2023-03-01T09:08:51;16.10;;;9.20;;
76867;SDS011;66168;45.478;11.060;2023-03-01T09:11:19;12.60;;;8.40;;
76867;SDS011;66168;45.478;11.060;2023-03-01T09:13:47;16.60;;;10.90;;
76867;SDS011;66168;45.478;11.060;2023-03-01T09:16:16;11.80;;;7.60;;
76867;SDS011;66168;45.478;11.060;2023-03-01T09:18:44;15.50;;;9.10;;
76867;SDS011;66168;45.478;11.060;2023-03-01T09:21:13;9.90;;;6.30;;
76867;SDS011;66168;45.478;11.060;2023-03-01T09:23:42;17.20;;;9.50;;
76867;SDS011;66168;45.478;11.060;2023-03-01T09:26:12;12.40;;;7.10;;
76867;SDS011;66168;45.478;11.060;2023-03-01T09:28:45;15.20;;;10.10;;
76867;SDS011;66168;45.478;11.060;2023-03-01T09:31:13;14.00;;;8.40;;
76867;SDS011;66168;45.478;11.060;2023-03-01T09:33:41;12.80;;;8.40;;
76867;SDS011;66168;45.478;11.060;2023-03-01T09:36:14;15.10;;;9.50;;
76867;SDS011;66168;45.478;11.060;2023-03-01T09:38:43;13.50;;;9.20;;
76867;SDS011;66168;45.478;11.060;2023-03-01T09:41:11;13.70;;;7.90;;
76867;SDS011;66168;45.478;11.060;2023-03-01T09:46:47;15.50;;;8.20;;
76867;SDS011;66168;45.478;11.060;2023-03-01T09:49:18;12.40;;;7.80;;
76867;SDS011;66168;45.478;11.060;2023-03-01T09:54:48;13.40;;;8.20;;
76867;SDS011;66168;45.478;11.060;2023-03-01T09:57:19;17.50;;;9.00;;
76867;SDS011;66168;45.478;11.060;2023-03-01T10:02:49;10.90;;;7.70;;
76867;SDS011;66168;45.478;11.060;2023-03-01T10:10:57;6.90;;;4.40;;
76867;SDS011;66168;45.478;11.060;2023-03-01T10:13:48;10.60;;;6.50;;
76867;SDS011;66168;45.478;11.060;2023-03-01T10:16:43;11.20;;;5.40;;
76867;SDS011;66168;45.478;11.060;2023-03-01T10:19:27;7.90;;;5.40;;
76867;SDS011;66168;45.478;11.060;2023-03-01T10:22:02;11.30;;;6.50;;
76867;SDS011;66168;45.478;11.060;2023-03-01T10:24:36;11.50;;;6.50;;
76867;SDS011;66168;45.478;11.060;2023-03-01T10:27:37;13.90;;;5.70;;
76867;SDS011;66168;45.478;11.060;2023-03-01T10:35:42;7.90;;;5.50;;
76867;SDS011;66168;45.478;11.060;2023-03-01T10:38:10;9.70;;;6.30;;
76867;SDS011;66168;45.478;11.060;2023-03-01T10:40:56;8.90;;;5.90;;
76867;SDS011;66168;45.478;11.060;2023-03-01T10:43:24;13.00;;;7.50;;
76867;SDS011;66168;45.478;11.060;2023-03-01T10:45:53;8.40;;;6.00;;
76867;SDS011;66168;45.478;11.060;2023-03-01T10:53:27;8.50;;;5.30;;
76867;SDS011;66168;45.478;11.060;2023-03-01T10:55:59;8.10;;;5.40;;
76867;SDS011;66168;45.478;11.060;2023-03-01T10:58:26;7.80;;;6.00;;
76867;SDS011;66168;45.478;11.060;2023-03-01T11:00:57;10.40;;;5.50;;
76867;SDS011;66168;45.478;11.060;2023-03-01T11:03:27;7.70;;;4.50;;
76867;SDS011;66168;45.478;11.060;2023-03-01T11:06:02;11.40;;;6.80;;
76867;SDS011;66168;45.478;11.060;2023-03-01T11:08:41;10.90;;;5.70;;
76867;SDS011;66168;45.478;11.060;2023-03-01T11:14:01;9.50;;;5.90;;
76867;SDS011;66168;45.478;11.060;2023-03-01T11:20:02;8.80;;;6.10;;
76867;SDS011;66168;45.478;11.060;2023-03-01T11:22:45;10.00;;;5.90;;
76867;SDS011;66168;45.478;11.060;2023-03-01T11:25:16;9.60;;;6.00;;
76867;SDS011;66168;45.478;11.060;2023-03-01T11:27:45;11.30;;;6.40;;
76867;SDS011;66168;45.478;11.060;2023-03-01T11:30:30;6.10;;;4.10;;
76867;SDS011;66168;45.478;11.060;2023-03-01T11:35:41;5.90;;;4.10;;
76867;SDS011;66168;45.478;11.060;2023-03-01T11:38:18;9.40;;;6.50;;
76867;SDS011;66168;45.478;11.060;2023-03-01T11:43:52;10.60;;;6.90;;
76867;SDS011;66168;45.478;11.060;2023-03-01T11:51:54;10.30;;;7.20;;
76867;SDS011;66168;45.478;11.060;2023-03-01T11:57:36;9.60;;;6.80;;
76867;SDS011;66168;45.478;11.060;2023-03-01T12:03:16;9.80;;;6.10;;
76867;SDS011;66168;45.478;11.060;2023-03-01T12:08:29;6.20;;;3.10;;
76867;SDS011;66168;45.478;11.060;2023-03-01T12:23:05;7.50;;;4.20;;
76867;SDS011;66168;45.478;11.060;2023-03-01T12:34:38;5.90;;;3.30;;
76867;SDS011;66168;45.478;11.060;2023-03-01T12:37:25;6.90;;;4.10;;
76867;SDS011;66168;45.478;11.060;2023-03-01T12:43:02;4.10;;;3.10;;
76867;SDS011;66168;45.478;11.060;2023-03-01T12:51:37;5.20;;;2.80;;
76867;SDS011;66168;45.478;11.060;2023-03-01T12:54:15;5.50;;;3.70;;
76867;SDS011;66168;45.478;11.060;2023-03-01T12:56:46;5.30;;;3.10;;
76867;SDS011;66168;45.478;11.060;2023-03-01T12:59:28;5.50;;;3.10;;
76867;SDS011;66168;45.478;11.060;2023-03-01T13:08:00;6.10;;;3.50;;
76867;SDS011;66168;45.478;11.060;2023-03-01T13:10:41;6.50;;;3.30;;
76867;SDS011;66168;45.478;11.060;2023-03-01T13:15:40;4.90;;;3.50;;
76867;SDS011;66168;45.478;11.060;2023-03-01T13:20:52;6.90;;;3.50;;
76867;SDS011;66168;45.478;11.060;2023-03-01T13:23:34;6.50;;;3.20;;
76867;SDS011;66168;45.478;11.060;2023-03-01T13:28:39;8.50;;;3.40;;
76867;SDS011;66168;45.478;11.060;2023-03-01T13:33:55;5.30;;;2.40;;
76867;SDS011;66168;45.478;11.060;2023-03-01T13:46:51;5.40;;;2.40;;
76867;SDS011;66168;45.478;11.060;2023-03-01T13:49:21;4.70;;;2.30;;
76867;SDS011;66168;45.478;11.060;2023-03-01T13:51:50;3.10;;;2.50;;
76867;SDS011;66168;45.478;11.060;2023-03-01T13:54:23;6.00;;;3.00;;
76867;SDS011;66168;45.478;11.060;2023-03-01T13:56:55;6.30;;;3.20;;
76867;SDS011;66168;45.478;11.060;2023-03-01T13:59:23;7.20;;;2.70;;
76867;SDS011;66168;45.478;11.060;2023-03-01T14:01:53;4.30;;;2.70;;
76867;SDS011;66168;45.478;11.060;2023-03-01T14:07:18;5.30;;;3.70;;
76867;SDS011;66168;45.478;11.060;2023-03-01T14:09:57;5.60;;;3.20;;
76867;SDS011;66168;45.478;11.060;2023-03-01T14:12:32;6.20;;;2.90;;
76867;SDS011;66168;45.478;11.060;2023-03-01T14:15:10;5.50;;;3.20;;
76867;SDS011;66168;45.478;11.060;2023-03-01T14:17:53;7.00;;;3.80;;
76867;SDS011;66168;45.478;11.060;2023-03-01T14:20:27;5.00;;;2.90;;
76867;SDS011;66168;45.478;11.060;2023-03-01T14:22:58;3.90;;;2.90;;
76867;SDS011;66168;45.478;11.060;2023-03-01T14:25:29;6.50;;;3.20;;
76867;SDS011;66168;45.478;11.060;2023-03-01T14:30:49;4.10;;;2.90;;
76867;SDS011;66168;45.478;11.060;2023-03-01T14:33:28;8.80;;;3.10;;
76867;SDS011;66168;45.478;11.060;2023-03-01T14:38:32;3.80;;;2.60;;
76867;SDS011;66168;45.478;11.060;2023-03-01T14:41:13;5.00;;;2.60;;
76867;SDS011;66168;45.478;11.060;2023-03-01T14:46:37;6.60;;;3.10;;
76867;SDS011;66168;45.478;11.060;2023-03-01T14:51:42;5.20;;;3.30;;
76867;SDS011;66168;45.478;11.060;2023-03-01T14:57:30;8.00;;;3.40;;
76867;SDS011;66168;45.478;11.060;2023-03-01T14:59:57;8.50;;;3.10;;
76867;SDS011;66168;45.478;11.060;2023-03-01T15:02:27;7.10;;;3.20;;
76867;SDS011;66168;45.478;11.060;2023-03-01T15:04:57;4.50;;;3.00;;
76867;SDS011;66168;45.478;11.060;2023-03-01T15:07:31;4.50;;;2.90;;
76867;SDS011;66168;45.478;11.060;2023-03-01T15:10:02;5.30;;;2.70;;
76867;SDS011;66168;45.478;11.060;2023-03-01T15:12:34;4.20;;;2.70;;
76867;SDS011;66168;45.478;11.060;2023-03-01T15:15:18;4.30;;;3.00;;
76867;SDS011;66168;45.478;11.060;2023-03-01T15:18:00;6.40;;;2.30;;
76867;SDS011;66168;45.478;11.060;2023-03-01T15:20:29;6.00;;;2.50;;
76867;SDS011;66168;45.478;11.060;2023-03-01T15:23:02;4.00;;;2.80;;
76867;SDS011;66168;45.478;11.060;2023-03-01T15:25:30;4.20;;;2.20;;
76867;SDS011;66168;45.478;11.060;2023-03-01T15:27:58;4.30;;;2.10;;
76867;SDS011;66168;45.478;11.060;2023-03-01T15:30:28;3.40;;;2.60;;
76867;SDS011;66168;45.478;11.060;2023-03-01T15:35:55;6.50;;;3.20;;
76867;SDS011;66168;45.478;11.060;2023-03-01T15:38:31;2.50;;;2.00;;
76867;SDS011;66168;45.478;11.060;2023-03-01T15:41:22;2.40;;;1.90;;
76867;SDS011;66168;45.478;11.060;2023-03-01T15:43:53;2.90;;;2.50;;
76867;SDS011;66168;45.478;11.060;2023-03-01T15:48:57;6.50;;;3.00;;
76867;SDS011;66168;45.478;11.060;2023-03-01T15:51:31;5.50;;;3.30;;
76867;SDS011;66168;45.478;11.060;2023-03-01T15:54:22;8.50;;;5.10;;
76867;SDS011;66168;45.478;11.060;2023-03-01T15:56:53;10.50;;;4.60;;
76867;SDS011;66168;45.478;11.060;2023-03-01T15:59:19;10.20;;;4.10;;
76867;SDS011;66168;45.478;11.060;2023-03-01T16:01:48;8.00;;;4.50;;
76867;SDS011;66168;45.478;11.060;2023-03-01T16:04:16;9.20;;;5.10;;
76867;SDS011;66168;45.478;11.060;2023-03-01T16:06:50;5.00;;;3.30;;
76867;SDS011;66168;45.478;11.060;2023-03-01T16:09:24;8.50;;;4.90;;
76867;SDS011;66168;45.478;11.060;2023-03-01T16:11:52;7.60;;;4.60;;
76867;SDS011;66168;45.478;11.060;2023-03-01T16:14:20;5.30;;;3.60;;
76867;SDS011;66168;45.478;11.060;2023-03-01T16:16:47;10.40;;;4.60;;
76867;SDS011;66168;45.478;11.060;2023-03-01T16:19:15;8.70;;;5.00;;
76867;SDS011;66168;45.478;11.060;2023-03-01T16:21:42;5.30;;;3.40;;
76867;SDS011;66168;45.478;11.060;2023-03-01T16:24:13;9.20;;;4.60;;
76867;SDS011;66168;45.478;11.060;2023-03-01T16:26:40;4.80;;;3.20;;
76867;SDS011;66168;45.478;11.060;2023-03-01T16:29:08;7.70;;;3.80;;
76867;SDS011;66168;45.478;11.060;2023-03-01T16:31:35;8.50;;;5.50;;
76867;SDS011;66168;45.478;11.060;2023-03-01T16:34:02;7.10;;;4.50;;
76867;SDS011;66168;45.478;11.060;2023-03-01T16:36:28;4.70;;;2.60;;
76867;SDS011;66168;45.478;11.060;2023-03-01T16:38:57;7.00;;;4.70;;
76867;SDS011;66168;45.478;11.060;2023-03-01T16:41:26;7.90;;;4.60;;
76867;SDS011;66168;45.478;11.060;2023-03-01T16:43:55;8.30;;;4.30;;
76867;SDS011;66168;45.478;11.060;2023-03-01T16:46:23;4.20;;;2.90;;
76867;SDS011;66168;45.478;11.060;2023-03-01T16:48:55;8.10;;;3.80;;
76867;SDS011;66168;45.478;11.060;2023-03-01T16:51:22;6.00;;;3.50;;
76867;SDS011;66168;45.478;11.060;2023-03-01T16:53:50;6.00;;;3.50;;
76867;SDS011;66168;45.478;11.060;2023-03-01T16:56:17;7.80;;;3.90;;
76867;SDS011;66168;45.478;11.060;2023-03-01T16:58:44;4.80;;;3.50;;
76867;SDS011;66168;45.478;11.060;2023-03-01T17:01:15;6.80;;;3.50;;
76867;SDS011;66168;45.478;11.060;2023-03-01T17:03:44;7.20;;;4.10;;
76867;SDS011;66168;45.478;11.060;2023-03-01T17:06:16;5.90;;;3.80;;
76867;SDS011;66168;45.478;11.060;2023-03-01T17:08:46;7.30;;;4.20;;
76867;SDS011;66168;45.478;11.060;2023-03-01T17:11:14;6.70;;;4.20;;
76867;SDS011;66168;45.478;11.060;2023-03-01T17:13:43;14.00;;;7.20;;
76867;SDS011;66168;45.478;11.060;2023-03-01T17:16:12;13.50;;;12.10;;
76867;SDS011;66168;45.478;11.060;2023-03-01T17:18:40;5.10;;;3.80;;